createdAt,value
2023-03-05T00:06:23.884Z,731.00
2023-03-05T00:07:23.815Z,731.00
2023-03-05T00:08:23.755Z,733.00
2023-03-05T00:09:23.680Z,732.00
2023-03-05T00:10:23.622Z,729.00
2023-03-05T00:11:23.554Z,731.00
2023-03-05T00:12:23.501Z,731.00
2023-03-05T00:13:23.426Z,732.00
2023-03-05T00:14:23.376Z,731.00
2023-03-05T00:15:23.302Z,731.00
2023-03-05T00:16:23.340Z,731.00
2023-03-05T00:17:23.190Z,731.00
2023-03-05T00:18:23.126Z,733.00
2023-03-05T00:19:23.059Z,734.00
2023-03-05T00:20:22.996Z,733.00
2023-03-05T00:21:22.937Z,733.00
2023-03-05T00:22:22.882Z,735.00
2023-03-05T00:23:22.834Z,737.00
2023-03-05T00:24:22.764Z,738.00
2023-03-05T00:25:22.712Z,735.00
2023-03-05T00:26:22.657Z,732.00
2023-03-05T00:27:22.609Z,728.00
2023-03-05T00:28:22.539Z,733.00
2023-03-05T00:29:22.451Z,734.00
2023-03-05T00:30:22.398Z,734.00
2023-03-05T00:31:22.375Z,738.00
2023-03-05T00:32:22.303Z,737.00
2023-03-05T00:33:22.186Z,738.00
2023-03-05T00:34:22.144Z,736.00
2023-03-05T00:35:22.106Z,736.00
2023-03-05T00:36:22.022Z,739.00
2023-03-05T00:37:21.962Z,737.00
2023-03-05T00:38:21.903Z,736.00
2023-03-05T00:39:21.857Z,738.00
2023-03-05T00:40:21.874Z,738.00
2023-03-05T00:41:21.721Z,739.00
2023-03-05T00:42:21.656Z,739.00
2023-03-05T00:43:21.620Z,738.00
2023-03-05T00:44:21.531Z,740.00
2023-03-05T00:45:21.487Z,736.00
2023-03-05T00:46:21.431Z,736.00
2023-03-05T00:47:21.349Z,739.00
2023-03-05T00:48:21.297Z,736.00
2023-03-05T00:49:21.254Z,734.00
2023-03-05T00:50:21.184Z,735.00
2023-03-05T00:51:21.107Z,734.00
2023-03-05T00:52:21.048Z,733.00
2023-03-05T00:53:20.978Z,734.00
2023-03-05T00:54:20.922Z,733.00
2023-03-05T00:55:20.864Z,732.00
2023-03-05T00:56:20.810Z,732.00
2023-03-05T00:57:20.756Z,733.00
2023-03-05T00:58:20.707Z,736.00
2023-03-05T00:59:20.637Z,736.00
2023-03-05T01:00:20.574Z,737.00
2023-03-05T01:01:20.555Z,744.00
2023-03-05T01:02:20.434Z,740.00
2023-03-05T01:03:20.385Z,736.00
2023-03-05T01:04:20.326Z,735.00
2023-03-05T01:05:20.287Z,735.00
2023-03-05T01:06:20.203Z,734.00
2023-03-05T01:07:20.138Z,737.00
2023-03-05T01:08:20.082Z,738.00
2023-03-05T01:09:20.036Z,737.00
2023-03-05T01:10:19.972Z,738.00
2023-03-05T01:11:19.902Z,736.00
2023-03-05T01:12:19.841Z,736.00
2023-03-05T01:13:19.792Z,738.00
2023-03-05T01:14:19.745Z,740.00
2023-03-05T01:15:19.671Z,739.00
2023-03-05T01:16:19.640Z,735.00
2023-03-05T01:17:19.585Z,732.00
2023-03-05T01:18:19.498Z,731.00
2023-03-05T01:19:19.463Z,728.00
2023-03-05T01:20:19.387Z,725.00
2023-03-05T01:21:19.351Z,722.00
2023-03-05T01:22:19.290Z,727.00
2023-03-05T01:23:19.221Z,721.00
2023-03-05T01:24:19.187Z,724.00
2023-03-05T01:25:19.091Z,726.00
2023-03-05T01:26:19.055Z,726.00
2023-03-05T01:27:18.989Z,726.00
2023-03-05T01:28:18.934Z,727.00
2023-03-05T01:29:18.873Z,726.00
2023-03-05T01:30:18.818Z,723.00
2023-03-05T01:31:18.845Z,722.00
2023-03-05T01:32:18.793Z,726.00
2023-03-05T01:33:18.693Z,722.00
2023-03-05T01:34:18.627Z,720.00
2023-03-05T01:35:18.643Z,720.00
2023-03-05T01:36:18.534Z,720.00
2023-03-05T01:37:18.498Z,723.00
2023-03-05T01:38:18.448Z,720.00
2023-03-05T01:39:18.398Z,716.00
2023-03-05T01:40:18.359Z,717.00
2023-03-05T01:41:18.298Z,717.00
2023-03-05T01:42:18.216Z,718.00
2023-03-05T01:43:18.182Z,716.00
2023-03-05T01:44:18.136Z,716.00
2023-03-05T01:45:18.107Z,717.00
2023-03-05T01:46:18.016Z,716.00
2023-03-05T01:47:17.947Z,717.00
2023-03-05T01:48:17.892Z,718.00
2023-03-05T01:49:17.833Z,717.00
2023-03-05T01:50:17.758Z,715.00
2023-03-05T01:51:17.698Z,715.00
2023-03-05T01:52:17.734Z,715.00
2023-03-05T01:53:17.568Z,715.00
2023-03-05T02:06:17.737Z,708.00
2023-03-05T04:04:10.018Z,697.00
2023-03-05T04:05:09.935Z,695.00
2023-03-05T04:06:09.864Z,692.00
2023-03-05T04:07:09.807Z,690.00
2023-03-05T04:08:09.779Z,691.00
2023-03-05T04:09:09.715Z,693.00
2023-03-05T04:10:09.649Z,690.00
2023-03-05T04:11:09.608Z,690.00
2023-03-05T04:12:09.592Z,690.00
2023-03-05T04:13:09.505Z,690.00
2023-03-05T04:14:09.455Z,693.00
2023-03-05T04:15:09.395Z,692.00
2023-03-05T04:16:09.405Z,693.00
2023-03-05T04:17:09.277Z,693.00
2023-03-05T04:18:09.216Z,693.00
2023-03-05T04:19:09.151Z,692.00
2023-03-05T04:20:09.154Z,693.00
2023-03-05T04:21:09.034Z,691.00
2023-03-05T04:22:08.988Z,690.00
2023-03-05T04:23:08.948Z,691.00
2023-03-05T04:24:09.045Z,692.00
2023-03-05T04:25:08.814Z,694.00
2023-03-05T04:26:08.754Z,693.00
2023-03-05T04:27:08.710Z,692.00
2023-03-05T04:28:08.646Z,692.00
2023-03-05T04:29:08.582Z,692.00
2023-03-05T04:30:08.510Z,694.00
2023-03-05T04:31:08.533Z,696.00
2023-03-05T04:32:08.436Z,700.00
2023-03-05T04:33:08.320Z,702.00
2023-03-05T04:34:08.260Z,702.00
2023-03-05T04:35:08.184Z,698.00
2023-03-05T04:36:08.120Z,694.00
2023-03-05T04:37:08.089Z,692.00
2023-03-05T04:38:08.030Z,691.00
2023-03-05T04:39:07.974Z,690.00
2023-03-05T04:40:07.909Z,693.00
2023-03-05T04:41:07.846Z,694.00
2023-03-05T04:42:07.808Z,693.00
2023-03-05T04:43:07.767Z,691.00
2023-03-05T04:44:07.729Z,690.00
2023-03-05T04:45:07.825Z,691.00
2023-03-05T05:24:05.383Z,672.00
2023-03-05T05:25:05.286Z,669.00
2023-03-05T05:26:05.220Z,667.00
2023-03-05T05:27:05.156Z,668.00
2023-03-05T05:28:05.092Z,670.00
2023-03-05T05:29:05.033Z,674.00
2023-03-05T05:30:04.982Z,673.00
2023-03-05T05:31:05.012Z,674.00
2023-03-05T05:32:04.871Z,673.00
2023-03-05T06:30:01.272Z,662.00
2023-03-05T06:31:01.255Z,662.00
2023-03-05T06:32:01.184Z,664.00
2023-03-05T06:33:01.103Z,665.00
2023-03-05T06:34:01.055Z,666.00
2023-03-05T06:35:00.964Z,666.00
2023-03-05T06:36:00.991Z,664.00
2023-03-05T06:37:00.848Z,661.00
2023-03-05T06:38:00.799Z,660.00
2023-03-05T06:39:00.745Z,660.00
2023-03-05T06:40:00.704Z,659.00
2023-03-05T06:41:00.622Z,660.00
2023-03-05T06:42:00.557Z,661.00
2023-03-05T06:43:00.503Z,660.00
2023-03-05T06:44:00.448Z,659.00
2023-03-05T06:45:00.377Z,660.00
2023-03-05T06:46:00.378Z,663.00
2023-03-05T06:47:00.277Z,663.00
2023-03-05T06:48:00.220Z,665.00
2023-03-05T06:49:00.157Z,664.00
2023-03-05T06:51:00.068Z,666.00
2023-03-05T06:52:00.001Z,664.00
2023-03-05T06:52:59.928Z,661.00
2023-03-05T06:53:59.868Z,661.00
2023-03-05T06:54:59.808Z,659.00
2023-03-05T06:55:59.742Z,657.00
2023-03-05T06:56:59.702Z,657.00
2023-03-05T06:57:59.642Z,658.00
2023-03-05T06:58:59.551Z,662.00
2023-03-05T06:59:59.493Z,662.00
2023-03-05T07:00:59.538Z,663.00
2023-03-05T07:01:59.371Z,662.00
2023-03-05T07:02:59.295Z,662.00
2023-03-05T07:03:59.262Z,662.00
2023-03-05T07:05:59.118Z,661.00
2023-03-05T07:23:58.286Z,660.00
2023-03-05T07:24:58.249Z,661.00
2023-03-05T07:25:58.206Z,658.00
2023-03-05T07:26:58.154Z,657.00
2023-03-05T07:27:58.082Z,656.00
2023-03-05T07:28:58.035Z,656.00
2023-03-05T07:29:57.983Z,655.00
2023-03-05T07:30:57.966Z,655.00
2023-03-05T07:31:57.905Z,655.00
2023-03-05T07:32:57.805Z,659.00
2023-03-05T07:33:57.737Z,658.00
2023-03-05T09:45:50.229Z,643.00
2023-03-05T09:47:50.032Z,640.00
2023-03-05T09:49:49.852Z,639.00
2023-03-05T09:50:49.755Z,639.00
2023-03-05T09:51:49.680Z,641.00
2023-03-05T09:52:49.609Z,643.00
2023-03-05T09:53:49.551Z,641.00
2023-03-05T09:54:49.513Z,644.00
2023-03-05T09:55:49.462Z,644.00
2023-03-05T09:56:49.431Z,643.00
2023-03-05T09:57:49.396Z,644.00
2023-03-05T10:10:48.705Z,638.00
2023-03-05T10:11:48.571Z,639.00
2023-03-05T10:12:48.488Z,642.00
2023-03-05T10:13:48.382Z,644.00
2023-03-05T10:14:48.307Z,649.00
2023-03-05T10:15:48.228Z,644.00
2023-03-05T10:16:48.244Z,643.00
2023-03-05T10:17:48.067Z,645.00
2023-03-05T10:18:47.975Z,645.00
2023-03-05T10:19:47.893Z,646.00
2023-03-05T10:20:47.809Z,645.00
2023-03-05T11:57:40.394Z,627.00
2023-03-05T11:58:40.347Z,627.00
2023-03-05T11:59:40.310Z,628.00
2023-03-05T12:00:40.272Z,630.00
2023-03-05T12:01:40.244Z,632.00
2023-03-05T12:02:40.269Z,627.00
2023-03-05T12:03:40.184Z,627.00
2023-03-05T12:04:40.119Z,624.00
2023-03-05T12:05:40.095Z,626.00
2023-03-05T12:06:40.034Z,629.00
2023-03-05T12:07:40.026Z,630.00
2023-03-05T12:08:40.526Z,630.00
2023-03-05T12:09:39.927Z,631.00
2023-03-05T12:10:39.885Z,629.00
2023-03-05T12:11:39.856Z,627.00
2023-03-05T12:12:39.830Z,623.00
2023-03-05T12:13:41.922Z,624.00
2023-03-05T12:14:39.665Z,626.00
2023-03-05T12:15:39.554Z,627.00
2023-03-05T12:16:39.463Z,631.00
2023-03-05T12:17:39.827Z,628.00
2023-03-05T12:18:39.235Z,629.00
2023-03-05T12:19:39.127Z,627.00
2023-03-05T12:20:39.705Z,624.00
2023-03-05T12:21:38.917Z,624.00
2023-03-05T12:22:39.568Z,627.00
2023-03-05T12:23:38.688Z,627.00
2023-03-05T12:24:38.579Z,626.00
2023-03-05T12:25:38.470Z,625.00
2023-03-05T12:26:38.363Z,623.00
2023-03-05T12:27:38.249Z,625.00
2023-03-05T12:28:38.149Z,625.00
2023-03-05T12:29:38.025Z,623.00
2023-03-05T12:30:37.916Z,623.00
2023-03-05T12:31:38.142Z,622.00
2023-03-05T13:29:31.448Z,620.00
2023-03-05T13:30:33.603Z,618.00
2023-03-05T13:31:31.251Z,618.00
2023-03-05T13:32:31.207Z,619.00
2023-03-05T13:33:31.017Z,622.00
2023-03-05T13:34:41.076Z,622.00
2023-03-05T13:53:28.815Z,617.00
2023-03-05T13:54:28.695Z,615.00
2023-03-05T13:55:28.597Z,615.00
2023-03-05T13:56:28.481Z,615.00
2023-03-05T13:57:28.364Z,616.00
2023-03-05T13:58:28.255Z,614.00
2023-03-05T13:59:28.154Z,614.00
2023-03-05T14:00:28.075Z,614.00
2023-03-05T14:01:28.050Z,614.00
2023-03-05T14:02:27.881Z,615.00
2023-03-05T14:03:27.984Z,617.00
2023-03-05T14:04:27.715Z,620.00
2023-03-05T15:25:21.602Z,608.00
2023-03-05T15:26:21.539Z,611.00
2023-03-05T15:27:21.479Z,614.00
2023-03-05T15:28:21.425Z,614.00
2023-03-05T15:29:21.362Z,614.00
2023-03-05T15:30:21.309Z,613.00
2023-03-05T15:31:21.283Z,615.00
2023-03-05T15:32:21.217Z,618.00
2023-03-05T15:33:21.146Z,616.00
2023-03-05T15:34:21.276Z,617.00
2023-03-05T15:35:21.082Z,617.00
2023-03-05T15:36:20.981Z,618.00
2023-03-05T15:37:20.948Z,619.00
2023-03-05T15:38:20.876Z,617.00
2023-03-05T15:39:20.822Z,616.00
2023-03-05T15:40:20.772Z,613.00
2023-03-05T15:41:20.710Z,610.00
2023-03-05T15:42:20.655Z,610.00
2023-03-05T15:43:20.614Z,611.00
2023-03-05T15:44:20.558Z,610.00
2023-03-05T15:45:20.522Z,614.00
2023-03-05T15:46:20.525Z,612.00
2023-03-05T15:47:20.397Z,608.00
2023-03-05T15:48:20.338Z,608.00
2023-03-05T15:49:20.297Z,607.00
2023-03-05T15:50:20.247Z,608.00
2023-03-05T15:51:20.197Z,608.00
2023-03-05T15:52:20.131Z,606.00
2023-03-05T15:53:20.082Z,606.00
2023-03-05T15:54:20.036Z,605.00
2023-03-05T15:55:19.988Z,606.00
2023-03-05T15:56:19.932Z,608.00
2023-03-05T15:57:19.887Z,610.00
2023-03-05T15:58:19.839Z,607.00
2023-03-05T15:59:19.800Z,609.00
2023-03-05T16:00:20.246Z,608.00
2023-03-05T16:01:19.752Z,607.00
2023-03-05T16:02:19.658Z,605.00
2023-03-05T16:03:19.828Z,604.00
2023-03-05T16:04:19.558Z,605.00
2023-03-05T16:05:19.513Z,605.00
2023-03-05T16:07:20.354Z,605.00
2023-03-05T16:08:19.305Z,605.00
2023-03-05T16:09:19.195Z,603.00
2023-03-05T16:10:19.085Z,604.00
2023-03-05T16:11:18.988Z,609.00
2023-03-05T16:12:18.881Z,609.00
2023-03-05T16:13:21.569Z,611.00
2023-03-05T16:14:18.699Z,609.00
2023-03-05T16:15:18.587Z,607.00
2023-03-05T16:16:18.513Z,607.00
2023-03-05T16:17:18.370Z,606.00
2023-03-05T16:18:18.269Z,606.00
2023-03-05T16:19:18.149Z,608.00
2023-03-05T16:20:18.081Z,606.00
2023-03-05T16:21:17.952Z,606.00
2023-03-05T16:22:17.867Z,604.00
2023-03-05T16:23:17.752Z,603.00
2023-03-05T17:28:12.417Z,607.00
2023-03-05T17:29:12.331Z,609.00
2023-03-05T17:30:12.337Z,610.00
2023-03-05T17:31:12.257Z,606.00
2023-03-05T17:33:12.088Z,609.00
2023-03-05T17:34:11.985Z,608.00
2023-03-05T17:35:11.887Z,610.00
2023-03-05T17:36:11.832Z,607.00
2023-03-05T17:38:11.708Z,610.00
2023-03-05T17:39:11.615Z,610.00
2023-03-05T17:40:11.544Z,609.00
2023-03-05T17:41:11.474Z,610.00
2023-03-05T18:29:08.435Z,605.00
2023-03-05T18:30:08.361Z,603.00
2023-03-05T18:31:08.301Z,599.00
2023-03-05T18:32:08.229Z,602.00
2023-03-05T18:33:08.158Z,603.00
2023-03-05T18:34:08.090Z,601.00
2023-03-05T18:35:08.018Z,602.00
2023-03-05T18:36:07.957Z,601.00
2023-03-05T18:37:07.893Z,604.00
2023-03-05T18:38:07.816Z,604.00
2023-03-05T18:39:07.759Z,603.00
2023-03-05T19:36:04.155Z,602.00
2023-03-05T19:37:04.070Z,601.00
2023-03-05T19:38:03.992Z,600.00
2023-03-05T19:39:03.929Z,601.00
2023-03-05T19:40:03.860Z,603.00
2023-03-05T19:41:03.805Z,602.00
2023-03-05T19:42:03.745Z,605.00
2023-03-05T19:43:03.666Z,607.00
2023-03-05T19:44:03.600Z,608.00
2023-03-05T19:45:03.555Z,609.00
2023-03-05T19:46:03.513Z,610.00
2023-03-05T19:47:03.402Z,607.00
2023-03-05T19:48:03.322Z,606.00
2023-03-05T19:49:03.265Z,603.00
2023-03-05T19:50:03.194Z,605.00
2023-03-05T19:51:03.119Z,603.00
2023-03-05T19:52:03.060Z,607.00
2023-03-05T19:53:02.999Z,607.00
2023-03-05T19:54:02.936Z,610.00
2023-03-05T19:55:02.873Z,606.00
2023-03-05T19:56:02.790Z,605.00
2023-03-05T19:57:02.721Z,604.00
2023-03-05T19:58:02.685Z,607.00
2023-03-05T19:59:02.655Z,605.00
2023-03-05T20:00:02.611Z,603.00
2023-03-05T20:01:02.538Z,603.00
2023-03-05T20:02:02.538Z,604.00
2023-03-05T20:03:02.426Z,604.00
2023-03-05T20:04:02.388Z,603.00
2023-03-05T20:05:02.370Z,604.00
2023-03-05T20:06:02.326Z,604.00
2023-03-05T20:07:02.289Z,604.00
2023-03-05T20:08:02.236Z,603.00
2023-03-05T20:09:02.213Z,605.00
2023-03-05T20:10:02.216Z,604.00
2023-03-05T20:11:02.091Z,603.00
2023-03-05T20:12:02.071Z,604.00
2023-03-05T20:13:02.006Z,607.00
2023-03-05T20:14:01.942Z,607.00
2023-03-05T20:15:01.897Z,605.00
2023-03-05T21:00:59.162Z,591.00
2023-03-05T21:01:59.104Z,592.00
2023-03-05T21:02:59.028Z,590.00
2023-03-05T21:04:58.883Z,595.00
2023-03-05T21:05:58.840Z,597.00
2023-03-05T21:06:58.811Z,598.00
2023-03-05T21:17:58.100Z,592.00
2023-03-05T21:18:58.038Z,590.00
2023-03-05T21:19:57.977Z,591.00
2023-03-05T21:20:57.913Z,592.00
2023-03-05T21:21:57.865Z,591.00
2023-03-05T21:22:57.816Z,590.00
2023-03-05T21:23:57.744Z,591.00
2023-03-05T22:38:53.130Z,587.00
2023-03-05T22:39:53.081Z,587.00
2023-03-05T22:40:53.021Z,588.00
2023-03-05T22:41:52.947Z,586.00
2023-03-05T22:42:52.911Z,583.00
